Time;durP1;ratioP1;P1;durP2;ratioP2;P2;SDS_P1;SDS_P2;PMS_P1;PMS_P2;Temp;Humidity;BMP_temperature;BMP_pressure;BME280_temperature;BME280_humidity;BME280_pressure;Samples;Min_cycle;Max_cycle;Signal;HPM_P1;HPM_P2
2022/05/15 00:01:30;;;;;;;2.67;2.17;;;25.00;55.50;;;;;;5006417;28;20180;-88
2022/05/15 00:03:56;;;;;;;2.97;2.60;;;25.00;55.50;;;;;;5006353;28;20826;-88
2022/05/15 00:06:22;;;;;;;5.67;2.33;;;25.00;55.50;;;;;;5006026;28;20181;-88
2022/05/15 00:08:48;;;;;;;2.87;2.30;;;25.00;55.50;;;;;;5006174;28;20419;-88
2022/05/15 00:11:19;;;;;;;3.20;2.40;;;25.00;56.00;;;;;;5006249;28;20428;-88
2022/05/15 00:13:46;;;;;;;2.33;2.13;;;25.00;55.50;;;;;;5007405;28;20236;-88
2022/05/15 00:16:12;;;;;;;2.93;2.40;;;25.00;55.50;;;;;;5006201;28;20453;-87
2022/05/15 00:18:38;;;;;;;3.20;2.70;;;25.00;55.50;;;;;;5002597;28;20523;-87
2022/05/15 00:21:16;;;;;;;3.23;2.40;;;25.00;55.50;;;;;;5020462;28;20501;-88
2022/05/15 00:23:43;;;;;;;2.67;2.07;;;25.10;55.50;;;;;;5007869;28;20193;-88
2022/05/15 00:26:08;;;;;;;5.13;2.43;;;25.00;55.40;;;;;;5005871;28;20430;-88
2022/05/15 00:28:34;;;;;;;2.27;2.07;;;25.10;55.50;;;;;;5023641;28;20927;-87
2022/05/15 00:31:00;;;;;;;2.13;1.93;;;25.10;55.50;;;;;;5027099;28;20233;-89
2022/05/15 00:33:27;;;;;;;4.60;3.03;;;25.10;55.50;;;;;;5009017;28;20189;-88
2022/05/15 00:35:53;;;;;;;3.00;2.33;;;25.10;55.40;;;;;;5056864;28;20201;-89
2022/05/15 00:38:19;;;;;;;3.40;2.27;;;25.10;55.40;;;;;;5002255;28;20459;-89
2022/05/15 00:40:46;;;;;;;2.87;2.57;;;25.10;55.40;;;;;;5004606;28;20191;-89
2022/05/15 00:43:55;;;;;;;2.77;2.37;;;25.10;55.50;;;;;;5003029;28;20455;-89
2022/05/15 00:46:43;;;;;;;2.40;2.20;;;25.10;55.40;;;;;;5002168;28;20747;-88
2022/05/15 00:49:12;;;;;;;2.20;2.00;;;25.10;55.40;;;;;;4955570;28;20416;-89
2022/05/15 00:51:44;;;;;;;3.20;2.47;;;25.10;55.50;;;;;;4947973;29;20441;-89
2022/05/15 00:54:21;;;;;;;4.23;2.13;;;25.10;55.50;;;;;;4963740;29;20963;-89
2022/05/15 00:56:59;;;;;;;3.03;2.50;;;25.10;55.50;;;;;;4948904;29;20525;-89
2022/05/15 00:59:29;;;;;;;2.50;2.30;;;25.10;55.40;;;;;;4958813;29;20411;-89
2022/05/15 01:01:55;;;;;;;2.30;2.10;;;25.10;55.40;;;;;;4965000;29;20437;-89
2022/05/15 01:04:21;;;;;;;2.63;2.17;;;25.10;55.40;;;;;;4949305;29;20924;-89
2022/05/15 01:06:47;;;;;;;3.50;2.43;;;25.10;55.40;;;;;;4948756;29;20221;-85
2022/05/15 01:09:14;;;;;;;3.10;2.13;;;25.10;55.40;;;;;;4948187;29;20434;-85
2022/05/15 01:11:42;;;;;;;2.77;2.10;;;25.10;55.40;;;;;;4965065;29;20179;-86
2022/05/15 01:14:11;;;;;;;2.77;2.17;;;25.10;55.40;;;;;;4964423;29;20839;-86
2022/05/15 01:16:37;;;;;;;2.73;2.53;;;25.10;55.40;;;;;;4948871;29;20464;-86
2022/05/15 01:19:04;;;;;;;2.67;2.30;;;25.10;55.40;;;;;;4949075;29;20420;-86
2022/05/15 01:21:53;;;;;;;2.93;2.27;;;25.10;55.40;;;;;;4946249;28;20458;-85
2022/05/15 01:24:18;;;;;;;2.87;2.47;;;25.10;55.40;;;;;;4948729;29;20869;-85
2022/05/15 01:26:45;;;;;;;2.33;2.07;;;25.10;55.40;;;;;;4993747;28;20432;-85
2022/05/15 01:29:11;;;;;;;3.87;2.27;;;25.10;55.40;;;;;;5020250;28;20196;-86
2022/05/15 01:31:37;;;;;;;3.10;2.60;;;25.10;55.40;;;;;;5005057;28;20393;-86
2022/05/15 01:34:05;;;;;;;3.60;2.07;;;25.10;55.40;;;;;;5006189;28;20405;-86
2022/05/15 01:36:36;;;;;;;2.60;2.30;;;25.10;55.40;;;;;;5004105;28;20416;-86
2022/05/15 01:39:04;;;;;;;1.93;1.80;;;25.10;55.40;;;;;;5004368;28;20416;-86
2022/05/15 01:41:29;;;;;;;2.37;2.17;;;25.10;55.40;;;;;;5003485;28;20782;-86
2022/05/15 01:43:55;;;;;;;4.60;2.17;;;25.10;55.40;;;;;;5004313;28;20500;-85
2022/05/15 01:46:24;;;;;;;2.77;2.27;;;25.10;55.40;;;;;;5005274;28;20177;-86
2022/05/15 01:48:52;;;;;;;3.03;2.30;;;25.10;55.40;;;;;;5003557;28;20181;-86
2022/05/15 01:51:19;;;;;;;2.23;1.93;;;25.10;55.40;;;;;;5003709;28;20420;-85
2022/05/15 01:54:04;;;;;;;2.17;1.97;;;25.10;55.40;;;;;;5104095;28;20572;-86
2022/05/15 01:56:30;;;;;;;2.00;1.87;;;25.10;55.30;;;;;;5104719;28;20411;-86
2022/05/15 01:58:57;;;;;;;2.67;2.20;;;25.10;55.30;;;;;;5103468;28;20404;-87
2022/05/15 02:01:23;;;;;;;1.87;1.73;;;25.10;55.30;;;;;;5102977;28;20174;-85
2022/05/15 02:03:49;;;;;;;2.57;1.97;;;25.10;55.30;;;;;;5102899;28;20407;-87
2022/05/15 02:09:37;;;;;;;2.63;2.10;;;25.10;55.30;;;;;;5104183;28;20215;-86
2022/05/15 02:12:05;;;;;;;2.93;2.63;;;25.10;55.40;;;;;;5102795;28;20527;-86
2022/05/15 02:14:31;;;;;;;2.83;2.07;;;25.10;55.40;;;;;;5103943;28;20177;-87
2022/05/15 02:20:19;;;;;;;2.17;1.97;;;25.10;55.40;;;;;;5104052;28;20153;-86
2022/05/15 02:22:45;;;;;;;2.00;1.77;;;25.00;55.40;;;;;;5102570;28;20533;-87
2022/05/15 02:25:13;;;;;;;2.17;1.97;;;25.00;55.40;;;;;;5102234;28;20483;-86
2022/05/15 02:27:39;;;;;;;2.20;2.00;;;25.10;55.50;;;;;;5103800;28;20166;-87
2022/05/15 02:30:07;;;;;;;2.40;1.93;;;25.10;55.40;;;;;;5103255;28;20416;-86
2022/05/15 02:32:33;;;;;;;2.03;1.80;;;25.10;55.40;;;;;;5102523;28;20519;-86
2022/05/15 02:35:07;;;;;;;2.50;2.30;;;25.10;55.40;;;;;;5102032;28;20419;-86
2022/05/15 02:37:33;;;;;;;2.30;2.10;;;25.10;55.40;;;;;;5101439;28;20404;-86
2022/05/15 02:39:59;;;;;;;2.20;1.90;;;25.10;55.40;;;;;;5102458;28;20449;-86
2022/05/15 02:42:26;;;;;;;3.10;2.00;;;25.10;55.40;;;;;;5103963;28;20447;-86
2022/05/15 02:44:54;;;;;;;2.13;1.90;;;25.10;55.40;;;;;;5102180;28;20933;-86
2022/05/15 02:47:23;;;;;;;2.57;1.87;;;25.10;55.40;;;;;;5103467;28;20400;-86
2022/05/15 02:52:33;;;;;;;2.03;1.77;;;25.10;55.30;;;;;;5103441;28;20503;-86
2022/05/15 02:54:59;;;;;;;2.30;2.10;;;25.00;55.30;;;;;;5103025;28;20404;-86
2022/05/15 02:57:25;;;;;;;1.90;1.70;;;25.00;55.30;;;;;;5101515;28;20170;-86
2022/05/15 02:59:51;;;;;;;2.00;1.80;;;25.00;55.30;;;;;;5101444;28;20908;-86
2022/05/15 03:02:20;;;;;;;2.00;1.80;;;25.00;55.30;;;;;;5103473;28;20455;-86
2022/05/15 03:04:47;;;;;;;2.40;2.20;;;25.00;55.30;;;;;;5090944;28;20210;-86
2022/05/15 03:07:16;;;;;;;1.77;1.67;;;25.00;55.30;;;;;;5087524;28;20447;-86
2022/05/15 03:09:42;;;;;;;1.80;1.67;;;25.00;55.30;;;;;;5087772;28;20408;-86
2022/05/15 03:12:08;;;;;;;2.40;1.73;;;25.00;55.30;;;;;;5088337;28;20439;-85
2022/05/15 03:14:33;;;;;;;2.70;2.03;;;25.00;55.30;;;;;;5086361;28;20178;-85
2022/05/15 03:16:59;;;;;;;2.03;1.83;;;25.00;55.30;;;;;;5084893;28;20421;-85
2022/05/15 03:19:25;;;;;;;2.20;2.00;;;25.00;55.40;;;;;;5099467;28;20178;-85
2022/05/15 03:21:52;;;;;;;1.80;1.63;;;25.00;55.30;;;;;;5098402;28;20185;-85
2022/05/15 03:24:18;;;;;;;2.23;1.77;;;25.00;55.30;;;;;;5090765;28;20427;-85
2022/05/15 03:26:46;;;;;;;2.13;1.67;;;25.00;55.30;;;;;;5096180;28;20417;-86
2022/05/15 03:29:15;;;;;;;1.97;1.77;;;25.00;55.30;;;;;;5084822;28;20258;-86
2022/05/15 03:31:41;;;;;;;1.97;1.77;;;25.00;55.30;;;;;;5089530;28;20963;-85
2022/05/15 03:34:09;;;;;;;1.77;1.67;;;25.00;55.30;;;;;;5102758;28;20516;-86
2022/05/15 03:36:36;;;;;;;2.10;1.70;;;25.00;55.30;;;;;;5103989;28;20427;-86
2022/05/15 03:39:03;;;;;;;1.60;1.50;;;25.00;55.30;;;;;;5093788;28;20488;-86
2022/05/15 03:41:29;;;;;;;2.70;2.50;;;25.00;55.30;;;;;;5093820;28;20417;-85
2022/05/15 03:43:55;;;;;;;2.20;2.00;;;25.00;55.30;;;;;;5093431;28;21022;-85
2022/05/15 03:46:20;;;;;;;2.73;1.97;;;25.00;55.30;;;;;;5099673;28;20186;-86
2022/05/15 03:48:46;;;;;;;2.40;2.20;;;25.00;55.30;;;;;;5084189;28;20178;-86
2022/05/15 03:51:13;;;;;;;1.90;1.70;;;25.00;55.30;;;;;;5082318;28;20186;-86
2022/05/15 03:53:38;;;;;;;2.80;1.87;;;25.00;55.30;;;;;;5079500;28;20277;-86
2022/05/15 03:56:05;;;;;;;2.07;1.87;;;25.00;55.30;;;;;;5084794;28;20413;-86
2022/05/15 03:58:35;;;;;;;2.10;1.90;;;25.00;55.30;;;;;;5089438;28;20178;-86
2022/05/15 04:01:03;;;;;;;3.03;1.80;;;25.00;55.30;;;;;;5086492;28;20436;-86
2022/05/15 04:03:28;;;;;;;2.87;2.20;;;25.00;55.30;;;;;;5088461;28;20833;-86
2022/05/15 04:05:54;;;;;;;2.90;2.17;;;25.00;55.30;;;;;;5089859;28;20426;-86
2022/05/15 04:08:20;;;;;;;2.70;2.00;;;25.00;55.90;;;;;;5088540;28;20629;-86
2022/05/15 04:10:46;;;;;;;2.20;2.00;;;25.00;55.40;;;;;;5094257;28;20174;-86
2022/05/15 04:13:13;;;;;;;1.63;1.47;;;25.00;55.30;;;;;;5086040;28;20174;-86
2022/05/15 04:15:39;;;;;;;2.80;1.90;;;25.00;55.40;;;;;;5083266;28;20432;-86
2022/05/15 04:18:05;;;;;;;1.90;1.50;;;25.00;55.40;;;;;;5083499;28;20769;-86
2022/05/15 04:20:32;;;;;;;1.60;1.50;;;25.00;55.40;;;;;;5079431;28;20178;-86
2022/05/15 04:22:58;;;;;;;2.10;1.90;;;25.00;55.40;;;;;;5082812;28;20466;-86
2022/05/15 04:25:24;;;;;;;2.50;2.30;;;25.00;55.40;;;;;;5078145;28;20405;-88
2022/05/15 04:27:51;;;;;;;2.40;2.20;;;25.00;55.30;;;;;;5084577;28;20420;-85
2022/05/15 04:30:20;;;;;;;2.30;1.80;;;25.00;55.30;;;;;;5087740;28;20425;-87
2022/05/15 04:32:46;;;;;;;2.00;1.80;;;25.00;55.30;;;;;;5088375;28;20417;-85
2022/05/15 04:35:12;;;;;;;2.00;1.90;;;25.00;55.30;;;;;;5082740;28;20435;-85
2022/05/15 04:37:39;;;;;;;1.70;1.60;;;25.00;55.30;;;;;;5089790;28;20170;-85
2022/05/15 04:40:06;;;;;;;2.43;2.23;;;25.00;55.30;;;;;;5086416;28;20416;-86
2022/05/15 04:42:33;;;;;;;2.20;2.00;;;25.00;55.30;;;;;;5084463;28;20602;-86
2022/05/15 04:44:59;;;;;;;2.17;1.97;;;25.00;55.30;;;;;;5083726;28;20519;-86
2022/05/15 04:47:25;;;;;;;2.30;1.97;;;25.00;55.30;;;;;;5084597;28;20421;-86
2022/05/15 04:49:51;;;;;;;3.07;2.00;;;25.00;55.30;;;;;;5076883;28;20178;-86
2022/05/15 04:52:17;;;;;;;2.03;1.83;;;25.00;55.30;;;;;;5085402;28;20432;-86
2022/05/15 04:54:43;;;;;;;2.27;2.07;;;25.00;55.30;;;;;;5083964;28;20427;-86
2022/05/15 04:57:08;;;;;;;2.17;1.97;;;25.00;55.30;;;;;;5085963;28;20175;-85
2022/05/15 04:59:34;;;;;;;2.17;1.93;;;25.00;55.30;;;;;;5083479;28;20280;-85
2022/05/15 05:02:00;;;;;;;1.83;1.73;;;25.00;55.30;;;;;;5088786;28;20229;-85
2022/05/15 05:04:26;;;;;;;2.30;2.10;;;25.10;55.30;;;;;;5089555;28;20201;-85
2022/05/15 05:06:52;;;;;;;2.80;1.93;;;25.10;55.30;;;;;;5088666;28;20590;-86
2022/05/15 05:09:18;;;;;;;2.40;2.10;;;25.10;55.30;;;;;;5088429;28;20166;-86
2022/05/15 05:11:44;;;;;;;2.50;2.27;;;25.10;55.30;;;;;;5088863;28;20438;-86
2022/05/15 05:14:10;;;;;;;1.90;1.80;;;25.10;55.30;;;;;;5085921;28;20713;-86
2022/05/15 05:16:37;;;;;;;2.20;2.00;;;25.10;55.30;;;;;;5087967;28;20170;-86
2022/05/15 05:19:03;;;;;;;2.77;2.40;;;25.10;55.30;;;;;;5087775;28;20506;-86
2022/05/15 05:21:30;;;;;;;2.00;1.80;;;25.10;55.30;;;;;;5089132;28;20420;-86
2022/05/15 05:23:55;;;;;;;2.17;1.97;;;25.10;55.30;;;;;;5087892;28;20513;-86
2022/05/15 05:26:21;;;;;;;2.50;1.93;;;25.10;55.30;;;;;;5087196;28;20495;-86
2022/05/15 05:28:47;;;;;;;2.20;2.00;;;25.10;55.30;;;;;;5084189;28;20177;-86
2022/05/15 05:31:14;;;;;;;2.10;1.90;;;25.10;55.30;;;;;;5088534;28;20409;-86
2022/05/15 05:33:39;;;;;;;2.57;2.23;;;25.10;55.30;;;;;;5089131;28;20189;-86
2022/05/15 05:36:06;;;;;;;2.53;1.60;;;25.10;55.30;;;;;;5086964;28;20421;-86
2022/05/15 05:38:32;;;;;;;2.10;1.87;;;25.10;55.30;;;;;;5089946;28;20491;-86
2022/05/15 05:40:58;;;;;;;1.83;1.60;;;25.10;55.30;;;;;;5088843;28;20532;-86
2022/05/15 05:43:24;;;;;;;3.40;2.40;;;25.10;55.30;;;;;;5085892;28;20468;-86
2022/05/15 05:45:49;;;;;;;2.13;1.90;;;25.20;55.30;;;;;;5088539;28;20627;-86
2022/05/15 05:48:15;;;;;;;2.03;1.83;;;25.20;55.30;;;;;;5086648;28;20177;-85
2022/05/15 05:50:41;;;;;;;2.20;1.77;;;25.20;55.30;;;;;;5088919;28;20205;-85
2022/05/15 05:53:07;;;;;;;2.13;1.77;;;25.20;55.30;;;;;;5085425;28;20206;-85
2022/05/15 05:55:33;;;;;;;3.50;2.23;;;25.20;55.30;;;;;;5086956;28;20269;-85
2022/05/15 05:57:59;;;;;;;2.57;1.70;;;25.20;55.30;;;;;;5085251;28;20186;-85
2022/05/15 06:00:31;;;;;;;3.60;2.93;;;25.20;55.30;;;;;;5085497;28;20428;-85
2022/05/15 06:04:39;;;;;;;3.43;2.40;;;25.20;55.20;;;;;;5085428;28;20462;-85
2022/05/15 06:05:49;;;;;;;3.20;2.87;;;25.10;55.00;;;;;;5087743;28;20412;-85
2022/05/15 06:08:15;;;;;;;4.13;3.37;;;25.10;54.90;;;;;;5082447;28;20933;-86
2022/05/15 06:10:42;;;;;;;3.43;3.13;;;25.10;54.80;;;;;;5083055;28;20174;-86
2022/05/15 06:13:08;;;;;;;5.87;3.23;;;25.10;54.70;;;;;;5073618;28;20420;-86
2022/05/15 06:15:35;;;;;;;6.90;2.90;;;25.10;54.60;;;;;;5080828;28;20442;-86
2022/05/15 06:18:03;;;;;;;4.47;2.90;;;25.10;54.60;;;;;;5083330;28;20455;-86
2022/05/15 06:23:51;;;;;;;3.30;3.00;;;25.10;54.40;;;;;;5085018;28;20942;-86
2022/05/15 06:26:17;;;;;;;4.57;3.70;;;25.00;54.20;;;;;;5084292;28;20425;-85
2022/05/15 06:28:43;;;;;;;5.33;3.30;;;25.00;54.20;;;;;;5084376;28;20644;-86
2022/05/15 06:31:08;;;;;;;6.17;3.57;;;25.00;54.20;;;;;;5084382;28;20224;-87
2022/05/15 06:33:52;;;;;;;3.83;2.87;;;25.10;54.20;;;;;;5085662;28;20640;-86
2022/05/15 06:36:20;;;;;;;5.20;3.70;;;25.00;54.10;;;;;;5096930;28;20179;-86
2022/05/15 06:38:46;;;;;;;4.13;2.80;;;25.00;54.20;;;;;;5084938;28;20420;-86
2022/05/15 06:41:12;;;;;;;3.77;2.80;;;25.00;54.30;;;;;;5085988;28;20428;-84
2022/05/15 06:43:40;;;;;;;3.90;3.30;;;25.00;54.40;;;;;;5088460;28;20217;-89
2022/05/15 06:46:06;;;;;;;3.30;3.00;;;25.00;54.60;;;;;;5088954;28;20214;-86
2022/05/15 06:48:33;;;;;;;5.23;2.83;;;25.00;55.00;;;;;;5087646;28;21001;-85
2022/05/15 06:51:03;;;;;;;3.50;3.17;;;25.00;54.40;;;;;;5087768;28;20551;-85
2022/05/15 06:53:28;;;;;;;5.37;3.20;;;25.00;54.40;;;;;;5087084;28;20428;-86
2022/05/15 06:58:38;;;;;;;3.17;2.90;;;25.00;54.30;;;;;;5087380;28;20205;-86
2022/05/15 07:01:05;;;;;;;3.33;2.50;;;25.00;54.20;;;;;;5086723;28;20420;-87
2022/05/15 07:03:31;;;;;;;2.57;2.30;;;25.00;54.10;;;;;;5086179;28;20194;-87
2022/05/15 07:05:56;;;;;;;3.47;3.17;;;25.00;54.10;;;;;;5086930;28;20435;-87
2022/05/15 07:08:22;;;;;;;3.70;3.10;;;25.00;54.10;;;;;;5087427;28;20170;-87
2022/05/15 07:10:48;;;;;;;2.80;2.60;;;25.00;54.20;;;;;;5087471;28;20181;-86
2022/05/15 07:13:16;;;;;;;3.10;2.40;;;25.10;54.30;;;;;;5086281;28;20425;-87
2022/05/15 07:15:42;;;;;;;3.70;2.63;;;25.10;54.30;;;;;;5086253;28;20182;-86
2022/05/15 07:21:30;;;;;;;3.43;2.73;;;25.10;54.30;;;;;;5083390;28;20193;-86
2022/05/15 07:23:55;;;;;;;3.73;2.47;;;25.00;54.30;;;;;;5087736;28;20448;-86
2022/05/15 07:29:43;;;;;;;2.60;2.40;;;25.10;54.40;;;;;;5086838;28;20184;-90
2022/05/15 07:32:10;;;;;;;2.83;2.53;;;25.10;54.50;;;;;;5084375;28;20421;-87
2022/05/15 07:34:44;;;;;;;2.90;2.50;;;25.10;54.40;;;;;;5084212;28;20171;-87
2022/05/15 07:37:11;;;;;;;3.43;2.80;;;25.10;54.50;;;;;;5085309;28;20404;-87
2022/05/15 07:39:37;;;;;;;2.87;2.50;;;25.10;54.50;;;;;;5083874;28;20910;-87
2022/05/15 07:42:03;;;;;;;3.20;2.90;;;25.10;54.50;;;;;;5084314;28;20464;-87
2022/05/15 07:44:29;;;;;;;4.80;2.57;;;25.10;54.40;;;;;;5084534;28;20197;-85
2022/05/15 07:46:54;;;;;;;5.97;2.90;;;25.10;54.40;;;;;;5083273;28;20921;-85
2022/05/15 07:49:20;;;;;;;2.40;2.17;;;25.10;54.50;;;;;;5084136;28;20640;-84
2022/05/15 07:51:46;;;;;;;2.63;2.37;;;25.10;54.50;;;;;;5083941;28;20225;-86
2022/05/15 07:54:16;;;;;;;3.90;3.50;;;25.10;54.50;;;;;;5084083;28;20412;-85
2022/05/15 07:56:42;;;;;;;3.40;2.60;;;25.10;54.60;;;;;;5082649;28;20174;-86
2022/05/15 07:59:09;;;;;;;2.90;2.70;;;25.10;54.60;;;;;;5088875;28;20427;-85
2022/05/15 08:01:35;;;;;;;3.23;2.60;;;25.10;54.70;;;;;;5059333;28;20179;-87
2022/05/15 08:04:01;;;;;;;2.57;2.37;;;25.10;54.70;;;;;;5086899;28;20490;-87
2022/05/15 08:09:14;;;;;;;2.70;2.30;;;25.20;54.70;;;;;;5076972;28;20458;-87
2022/05/15 08:11:40;;;;;;;3.00;2.70;;;25.20;54.70;;;;;;5064660;28;20895;-86
2022/05/15 08:14:08;;;;;;;3.10;2.50;;;25.10;54.60;;;;;;5064691;28;20421;-86
2022/05/15 08:16:36;;;;;;;2.90;2.47;;;25.20;54.70;;;;;;5063860;28;20420;-87
2022/05/15 08:24:31;;;;;;;2.97;2.67;;;25.10;54.70;;;;;;5065204;28;20485;-85
2022/05/15 08:26:57;;;;;;;3.03;2.73;;;25.10;54.70;;;;;;5064297;28;20414;-86
2022/05/15 08:29:23;;;;;;;2.60;2.20;;;25.10;54.70;;;;;;5047285;28;20282;-87
2022/05/15 08:31:49;;;;;;;2.83;2.50;;;25.10;54.70;;;;;;5088471;28;20177;-88
2022/05/15 08:34:15;;;;;;;3.27;2.60;;;25.10;54.70;;;;;;5104566;28;20177;-88
2022/05/15 08:36:44;;;;;;;2.30;2.10;;;25.10;54.70;;;;;;5105089;28;20180;-88
2022/05/15 08:39:12;;;;;;;3.33;2.27;;;25.10;54.70;;;;;;5104183;28;20420;-90
2022/05/15 08:41:46;;;;;;;3.30;2.67;;;25.10;54.70;;;;;;5104331;28;20424;-89
2022/05/15 08:44:14;;;;;;;2.47;2.27;;;25.10;54.70;;;;;;5105614;28;20492;-88
2022/05/15 08:46:49;;;;;;;2.30;1.90;;;25.10;54.70;;;;;;5104410;28;20962;-89
2022/05/15 08:49:41;;;;;;;2.53;2.27;;;25.10;54.70;;;;;;5105067;28;20433;-88
2022/05/15 08:52:14;;;;;;;2.87;2.20;;;25.10;54.70;;;;;;5105012;28;20448;-88
2022/05/15 08:54:52;;;;;;;2.50;2.30;;;25.10;54.70;;;;;;5103928;28;20392;-87
2022/05/15 08:57:45;;;;;;;2.30;2.10;;;25.10;54.70;;;;;;5102492;28;20423;-88
2022/05/15 09:00:16;;;;;;;2.37;2.17;;;25.10;54.70;;;;;;5104770;28;20479;-89
2022/05/15 09:02:43;;;;;;;3.37;2.63;;;25.10;54.70;;;;;;5102709;28;20445;-90
2022/05/15 09:05:12;;;;;;;4.53;2.57;;;25.10;54.70;;;;;;5104722;28;20490;-88
2022/05/15 09:07:47;;;;;;;2.23;2.10;;;25.10;54.70;;;;;;5104372;28;20478;-88
2022/05/15 09:10:31;;;;;;;3.63;2.67;;;25.10;54.70;;;;;;5103307;28;20399;-88
2022/05/15 09:13:08;;;;;;;3.40;2.33;;;25.10;54.70;;;;;;5106652;28;20749;-87
2022/05/15 09:15:41;;;;;;;2.90;2.10;;;25.10;54.70;;;;;;5061760;28;20433;-87
2022/05/15 09:18:14;;;;;;;3.00;2.53;;;25.10;54.70;;;;;;5063839;28;20401;-88
2022/05/15 09:21:01;;;;;;;2.80;2.40;;;25.10;54.70;;;;;;5063062;28;20793;-87
2022/05/15 09:23:36;;;;;;;2.97;2.53;;;25.10;54.70;;;;;;5063279;28;20442;-87
2022/05/15 09:26:42;;;;;;;2.97;2.70;;;25.10;54.70;;;;;;5064285;28;20886;-88
2022/05/15 09:29:21;;;;;;;3.33;3.00;;;25.10;54.60;;;;;;5042485;28;20474;-91
2022/05/15 09:31:48;;;;;;;2.77;2.53;;;25.10;54.70;;;;;;5042161;28;20913;-91
2022/05/15 09:34:29;;;;;;;3.40;2.90;;;25.10;55.30;;;;;;5042309;28;20415;-91
2022/05/15 09:38:26;;;;;;;2.70;2.50;;;25.10;54.70;;;;;;5026253;28;20425;-90
2022/05/15 09:39:51;;;;;;;3.30;2.80;;;25.10;54.70;;;;;;5041264;28;20418;-88
2022/05/15 09:45:19;;;;;;;4.93;2.90;;;25.10;54.70;;;;;;5060679;28;20463;-88
2022/05/15 09:48:10;;;;;;;4.43;2.80;;;25.10;54.70;;;;;;5061696;28;20463;-90
2022/05/15 09:50:48;;;;;;;5.37;2.77;;;25.10;54.70;;;;;;5044622;28;20424;-90
2022/05/15 09:53:36;;;;;;;3.10;2.50;;;25.10;54.70;;;;;;5040531;28;20429;-89
2022/05/15 09:56:20;;;;;;;3.10;2.80;;;25.10;54.70;;;;;;5018219;28;20446;-88
2022/05/15 09:59:02;;;;;;;5.10;2.77;;;25.10;54.70;;;;;;5042146;28;20398;-88
2022/05/15 10:01:55;;;;;;;4.60;2.53;;;25.10;54.70;;;;;;5061840;28;20789;-88
2022/05/15 10:04:26;;;;;;;4.43;2.47;;;25.10;54.70;;;;;;5062601;28;20418;-88
2022/05/15 10:07:02;;;;;;;2.57;2.37;;;25.10;54.70;;;;;;5061408;28;20405;-88
2022/05/15 10:09:32;;;;;;;3.00;2.53;;;25.10;54.70;;;;;;5061549;28;20406;-88
2022/05/15 10:12:06;;;;;;;5.13;2.83;;;25.10;54.70;;;;;;5061884;28;20401;-88
2022/05/15 10:14:40;;;;;;;3.23;2.90;;;25.10;54.70;;;;;;5063961;28;20461;-87
2022/05/15 10:17:11;;;;;;;3.30;2.93;;;25.10;54.70;;;;;;5065961;28;20405;-90
2022/05/15 10:20:00;;;;;;;3.90;2.87;;;25.10;54.70;;;;;;5066493;28;20389;-90
2022/05/15 10:22:45;;;;;;;3.30;2.50;;;25.10;54.60;;;;;;5065418;28;20449;-89
2022/05/15 10:25:33;;;;;;;3.30;2.73;;;25.10;54.60;;;;;;5066036;28;20966;-89
2022/05/15 10:28:17;;;;;;;3.37;3.07;;;25.10;54.60;;;;;;5065608;28;20409;-89
2022/05/15 10:30:52;;;;;;;3.80;3.20;;;25.10;54.60;;;;;;5065467;28;20441;-89
2022/05/15 10:33:21;;;;;;;3.10;2.77;;;25.10;54.70;;;;;;5066606;28;20401;-89
2022/05/15 10:36:02;;;;;;;2.70;2.50;;;25.10;54.60;;;;;;5064602;28;20409;-89
2022/05/15 10:38:33;;;;;;;4.57;3.03;;;25.10;55.20;;;;;;5066924;28;20457;-89
2022/05/15 10:41:14;;;;;;;2.80;2.60;;;25.10;54.60;;;;;;5066114;28;20390;-89
2022/05/15 10:43:47;;;;;;;4.50;2.73;;;25.10;54.60;;;;;;5065331;28;20492;-87
2022/05/15 10:46:47;;;;;;;5.10;3.23;;;25.10;54.60;;;;;;5064593;28;20409;-89
2022/05/15 10:52:56;;;;;;;5.60;3.17;;;25.10;54.60;;;;;;5043225;28;20425;-89
2022/05/15 10:58:43;;;;;;;5.07;4.07;;;25.10;54.60;;;;;;5043972;28;20422;-89
2022/05/15 11:01:27;;;;;;;4.73;4.23;;;25.10;54.60;;;;;;5044193;28;20438;-89
2022/05/15 11:04:50;;;;;;;5.13;4.03;;;25.10;54.60;;;;;;5046614;28;20473;-89
2022/05/15 11:10:59;;;;;;;6.30;4.50;;;25.10;54.60;;;;;;5023676;28;20394;-89
2022/05/15 11:13:52;;;;;;;6.00;4.10;;;25.10;54.60;;;;;;5007634;28;20412;-89
2022/05/15 11:16:43;;;;;;;5.80;4.00;;;25.10;55.10;;;;;;5024796;28;20396;-89
2022/05/15 11:19:39;;;;;;;6.00;4.27;;;25.00;54.50;;;;;;5023141;28;20439;-88
2022/05/15 11:22:29;;;;;;;5.40;3.93;;;25.10;54.60;;;;;;5002309;28;20590;-89
2022/05/15 11:25:06;;;;;;;4.77;3.70;;;25.10;54.50;;;;;;4983696;28;20445;-89
2022/05/15 11:27:51;;;;;;;6.43;4.00;;;25.10;54.60;;;;;;5000555;28;20425;-89
2022/05/15 11:30:22;;;;;;;3.73;3.40;;;25.10;54.50;;;;;;4984117;28;20413;-89
2022/05/15 11:32:47;;;;;;;4.20;3.80;;;25.10;54.50;;;;;;5000756;28;20448;-90
2022/05/15 11:35:21;;;;;;;4.90;4.00;;;25.10;54.50;;;;;;5000078;28;20495;-89
2022/05/15 11:37:56;;;;;;;4.50;3.90;;;25.10;54.40;;;;;;5000866;28;20592;-89
2022/05/15 11:40:36;;;;;;;4.60;3.60;;;25.10;54.30;;;;;;5019460;28;20423;-89
2022/05/15 11:43:26;;;;;;;4.37;3.53;;;25.10;54.30;;;;;;5022982;28;20482;-89
2022/05/15 11:46:09;;;;;;;5.17;4.30;;;25.10;54.20;;;;;;5064368;28;20421;-89
2022/05/15 11:48:38;;;;;;;3.93;3.20;;;25.10;54.20;;;;;;5066085;28;20440;-89
2022/05/15 11:51:12;;;;;;;5.60;3.60;;;25.10;54.20;;;;;;5066117;28;20520;-89
2022/05/15 11:53:47;;;;;;;4.77;3.27;;;25.10;54.20;;;;;;5066319;28;20433;-89
2022/05/15 11:56:29;;;;;;;3.50;3.20;;;25.10;54.20;;;;;;5067387;28;20426;-89
2022/05/15 11:59:14;;;;;;;4.73;2.80;;;25.10;54.20;;;;;;5066623;28;20429;-88
2022/05/15 12:01:41;;;;;;;4.00;3.50;;;25.10;54.30;;;;;;5066519;28;20402;-90
2022/05/15 12:04:18;;;;;;;4.27;2.97;;;25.10;54.30;;;;;;5067327;28;20449;-90
2022/05/15 12:06:49;;;;;;;3.83;3.43;;;25.10;54.30;;;;;;5066661;28;20440;-90
2022/05/15 12:09:18;;;;;;;3.97;3.00;;;25.10;54.40;;;;;;5068031;28;20500;-90
2022/05/15 12:11:49;;;;;;;5.07;3.03;;;25.10;55.00;;;;;;5068102;28;20405;-89
2022/05/15 12:14:30;;;;;;;2.73;2.53;;;25.10;54.40;;;;;;5066762;28;20476;-90
2022/05/15 12:17:03;;;;;;;3.33;2.97;;;25.10;54.40;;;;;;5067580;28;20428;-90
2022/05/15 12:19:38;;;;;;;3.13;2.90;;;25.10;54.40;;;;;;5067055;28;20448;-90
2022/05/15 12:22:13;;;;;;;3.43;3.13;;;25.10;54.40;;;;;;5066275;28;20417;-90
2022/05/15 12:24:45;;;;;;;7.10;3.57;;;25.10;54.40;;;;;;5065975;28;20419;-90
2022/05/15 12:27:19;;;;;;;3.90;3.00;;;25.10;54.50;;;;;;5065326;28;20429;-90
2022/05/15 12:30:10;;;;;;;4.83;3.37;;;25.10;54.50;;;;;;5071019;28;20429;-90
2022/05/15 12:33:02;;;;;;;5.17;3.47;;;25.10;54.50;;;;;;5066232;28;20931;-90
2022/05/15 12:35:38;;;;;;;4.10;3.17;;;25.10;54.50;;;;;;5081047;28;20459;-89
2022/05/15 12:38:20;;;;;;;5.00;3.10;;;25.10;54.50;;;;;;5083793;28;20546;-90
2022/05/15 12:41:14;;;;;;;3.80;3.40;;;25.10;54.50;;;;;;5085609;28;20785;-89
2022/05/15 12:43:44;;;;;;;3.03;2.73;;;25.10;54.60;;;;;;5072822;28;20468;-90
2022/05/15 12:46:29;;;;;;;3.10;2.80;;;25.10;54.60;;;;;;5065616;28;20439;-89
2022/05/15 12:48:55;;;;;;;3.07;2.87;;;25.10;54.60;;;;;;5066768;28;20420;-89
2022/05/15 12:51:32;;;;;;;3.40;3.10;;;25.10;54.60;;;;;;5065383;28;20494;-90
2022/05/15 12:54:00;;;;;;;4.47;3.33;;;25.10;54.60;;;;;;5064960;28;20586;-89
2022/05/15 12:56:30;;;;;;;4.37;2.70;;;25.10;54.60;;;;;;5066657;28;20479;-89
2022/05/15 12:59:06;;;;;;;5.30;4.13;;;25.10;54.60;;;;;;5078437;28;20433;-89
2022/05/15 13:01:33;;;;;;;3.63;2.83;;;25.10;54.50;;;;;;5078744;28;20428;-89
2022/05/15 13:04:01;;;;;;;3.53;3.20;;;25.10;54.50;;;;;;5081182;28;20549;-89
2022/05/15 13:06:36;;;;;;;3.57;3.27;;;25.10;54.60;;;;;;5078597;28;20478;-89
2022/05/15 13:09:08;;;;;;;3.33;2.97;;;25.10;54.50;;;;;;5077828;28;20435;-90
2022/05/15 13:11:54;;;;;;;4.20;2.77;;;25.10;54.50;;;;;;5072150;28;20428;-90
2022/05/15 13:14:27;;;;;;;3.03;2.60;;;25.10;54.50;;;;;;5072875;28;20432;-89
2022/05/15 13:16:54;;;;;;;4.90;3.27;;;25.10;54.60;;;;;;5072672;28;20420;-89
2022/05/15 13:19:42;;;;;;;4.63;3.00;;;25.10;54.60;;;;;;5069824;28;20417;-88
2022/05/15 13:22:20;;;;;;;3.07;2.60;;;25.10;54.60;;;;;;5100861;28;20425;-88
2022/05/15 13:24:48;;;;;;;3.40;3.10;;;25.10;54.60;;;;;;5071173;28;20429;-88
2022/05/15 13:27:14;;;;;;;3.33;2.80;;;25.10;54.60;;;;;;5075261;28;20429;-88
2022/05/15 13:29:40;;;;;;;2.70;2.50;;;25.10;54.60;;;;;;5067044;28;20421;-88
2022/05/15 13:32:08;;;;;;;3.00;2.80;;;25.10;54.60;;;;;;5074020;28;20416;-89
2022/05/15 13:34:37;;;;;;;3.13;2.70;;;25.10;54.60;;;;;;5072637;28;20640;-87
2022/05/15 13:37:11;;;;;;;5.30;3.93;;;25.10;54.60;;;;;;5073406;28;20453;-91
2022/05/15 13:45:18;;;;;;;3.00;2.80;;;25.10;54.60;;;;;;5082095;28;20481;-89
2022/05/15 13:48:04;;;;;;;3.30;3.00;;;25.10;54.60;;;;;;5086893;28;20408;-89
2022/05/15 13:50:51;;;;;;;3.20;2.87;;;25.10;54.60;;;;;;5085264;28;20934;-89
2022/05/15 13:53:28;;;;;;;2.73;2.00;;;25.10;54.60;;;;;;5086623;28;20456;-89
2022/05/15 13:56:01;;;;;;;4.60;2.77;;;25.10;54.60;;;;;;5075578;28;20421;-89
2022/05/15 13:58:43;;;;;;;2.87;2.40;;;25.10;54.60;;;;;;5066864;28;20456;-89